Time;durP1;ratioP1;P1;durP2;ratioP2;P2;SDS_P1;SDS_P2;PMS_P1;PMS_P2;Temp;Humidity;BMP_temperature;BMP_pressure;BME280_temperature;BME280_humidity;BME280_pressure;Samples;Min_cycle;Max_cycle;Signal;HPM_P1;HPM_P2
2021/09/30 00:02:02;;;;;;;1.87;1.00;;;;;;;11.70;60.61;95288.94;5028171;28;20689;-70
2021/09/30 00:04:28;;;;;;;3.87;1.10;;;10.80;99.90;;;11.65;60.69;95280.06;5027892;28;20209;-70
2021/09/30 00:06:54;;;;;;;2.40;1.10;;;10.70;99.90;;;11.65;61.15;95280.84;4993769;28;20693;-70
2021/09/30 00:09:19;;;;;;;1.50;0.90;;;11.20;99.90;;;11.56;60.97;95282.28;5023608;28;20901;-69
2021/09/30 00:11:48;;;;;;;2.77;1.20;;;10.70;99.90;;;11.48;61.10;95289.81;5030082;28;20219;-69
2021/09/30 00:14:39;;;;;;;3.37;1.20;;;10.50;99.90;;;11.54;61.14;95300.28;5023515;28;20233;-70
2021/09/30 00:41:53;;;;;;;2.40;1.20;;;10.50;99.90;;;11.53;61.88;95287.25;5028207;28;20563;-70
2021/09/30 00:47:17;;;;;;;4.73;1.37;;;10.90;99.90;;;11.52;62.08;95285.63;5037268;28;20235;-70
2021/09/30 01:22:09;;;;;;;4.63;0.70;;;10.40;99.90;;;11.20;62.92;95294.03;4991168;28;20272;-72
2021/09/30 01:32:07;;;;;;;0.70;0.70;;;10.30;99.90;;;11.02;63.24;95299.47;5002930;28;20235;-71
2021/09/30 01:52:03;;;;;;;1.83;0.90;;;10.70;99.90;;;10.82;63.62;95312.28;4999483;28;20289;-72
2021/09/30 02:31:30;;;;;;;2.33;0.97;;;10.50;99.90;;;10.70;64.35;95301.69;4970147;28;20726;-72
2021/09/30 02:59:07;;;;;;;3.50;0.60;;;9.80;99.90;;;10.67;65.05;95299.50;5023655;28;20564;-71
2021/09/30 03:01:36;;;;;;;3.53;0.80;;;10.20;99.90;;;10.70;65.12;95303.53;5028028;28;20653;-71
2021/09/30 03:04:03;;;;;;;3.50;0.70;;;9.80;99.90;;;10.71;65.17;95299.84;5029240;28;20773;-71
2021/09/30 03:06:31;;;;;;;2.50;0.60;;;9.90;99.90;;;10.71;64.98;95303.28;5043741;28;20685;-72
2021/09/30 03:09:00;;;;;;;1.23;0.50;;;10.20;99.90;;;10.70;65.30;95298.22;5010685;28;20213;-71
2021/09/30 03:11:33;;;;;;;1.33;0.50;;;10.20;99.90;;;10.69;65.16;95286.00;5013240;28;20214;-71
2021/09/30 03:14:00;;;;;;;3.57;0.60;;;10.00;99.90;;;10.64;65.50;95294.63;5024118;28;20205;-71
2021/09/30 03:16:48;;;;;;;1.43;0.60;;;8.60;99.90;;;10.70;65.65;95292.91;5013748;28;20224;-71
2021/09/30 03:20:04;;;;;;;2.13;0.60;;;9.60;99.90;;;10.71;65.09;95297.97;5011528;28;20216;-72
2021/09/30 03:24:39;;;;;;;1.67;0.60;;;9.70;99.90;;;10.73;65.40;95297.75;5028439;28;20255;-71
2021/09/30 03:27:06;;;;;;;1.10;0.60;;;;;;;10.77;65.71;95305.03;5025990;28;20241;-71
2021/09/30 03:29:34;;;;;;;1.93;0.53;;;10.10;99.90;;;10.70;65.71;95303.53;5028139;28;20288;-71
2021/09/30 03:32:01;;;;;;;2.20;0.90;;;9.70;99.90;;;10.69;65.96;95305.38;5023179;28;20228;-71
2021/09/30 03:34:27;;;;;;;1.10;0.70;;;8.90;99.90;;;10.78;65.74;95303.16;5026317;28;20646;-71
2021/09/30 03:36:53;;;;;;;2.80;0.70;;;9.90;99.90;;;10.75;66.14;95299.13;5030800;28;20248;-72
2021/09/30 03:39:25;;;;;;;2.93;0.70;;;;;;;10.79;66.10;95299.47;4995028;28;20643;-71
2021/09/30 03:41:52;;;;;;;3.00;0.73;;;9.70;99.90;;;10.70;65.65;95292.91;5026597;28;20227;-71
2021/09/30 03:44:19;;;;;;;2.57;0.67;;;10.10;99.90;;;10.65;66.19;95292.78;5027981;28;20261;-71
2021/09/30 03:46:49;;;;;;;3.60;0.80;;;9.40;99.90;;;10.64;65.88;95297.28;5024704;28;20204;-71
2021/09/30 03:49:50;;;;;;;2.93;0.60;;;;;;;10.63;65.94;95298.34;5031691;28;20219;-72
2021/09/30 03:52:18;;;;;;;3.37;0.70;;;9.50;99.90;;;10.58;66.22;95292.91;5009069;28;20232;-72
2021/09/30 03:57:49;;;;;;;2.57;0.70;;;9.70;99.90;;;10.59;66.08;95304.31;5025402;28;20307;-71
2021/09/30 04:00:18;;;;;;;2.53;0.70;;;9.20;99.90;;;10.58;66.18;95306.16;5031036;28;20610;-72
2021/09/30 04:02:44;;;;;;;2.53;0.60;;;;;;;10.65;65.96;95314.00;5011963;28;20204;-72
2021/09/30 04:05:13;;;;;;;3.60;0.90;;;8.80;99.90;;;10.70;66.37;95308.81;5021799;28;20213;-72
2021/09/30 04:07:39;;;;;;;1.40;0.67;;;9.80;99.90;;;10.67;66.36;95307.44;5005606;28;20257;-72
2021/09/30 04:10:05;;;;;;;2.20;0.90;;;9.70;99.90;;;10.72;66.39;95301.44;5010760;28;20627;-72
2021/09/30 04:12:31;;;;;;;2.40;0.77;;;9.90;99.90;;;10.68;66.57;95314.34;5009177;28;20205;-71
2021/09/30 04:14:57;;;;;;;1.87;0.50;;;8.50;99.90;;;10.52;66.32;95308.91;5029092;28;20224;-71
2021/09/30 04:17:23;;;;;;;2.47;0.70;;;;;;;10.39;66.47;95312.59;5009991;28;20211;-72
2021/09/30 04:19:52;;;;;;;2.43;0.60;;;9.10;99.90;;;10.37;66.66;95300.63;5028619;28;20568;-71
2021/09/30 04:22:20;;;;;;;0.90;0.67;;;9.60;99.90;;;10.30;66.36;95316.63;5026782;28;20302;-71
2021/09/30 04:24:48;;;;;;;3.23;0.80;;;10.10;99.90;;;10.35;66.71;95315.91;5031318;28;20663;-70
2021/09/30 04:27:17;;;;;;;1.87;0.60;;;10.10;99.90;;;10.39;66.57;95312.59;5012396;28;20213;-71
2021/09/30 04:29:45;;;;;;;2.30;0.60;;;9.10;99.90;;;10.42;66.92;95311.31;5024787;28;20606;-72
2021/09/30 04:32:14;;;;;;;2.97;0.80;;;;;;;10.42;66.96;95314.78;5028146;28;20224;-71
2021/09/30 04:34:40;;;;;;;1.43;0.57;;;9.60;99.90;;;10.41;66.72;95315.03;5024582;28;20212;-72
2021/09/30 04:37:06;;;;;;;3.27;0.83;;;10.20;99.90;;;10.38;66.69;95316.28;5025660;28;20227;-70
2021/09/30 04:39:32;;;;;;;2.47;0.70;;;9.70;99.90;;;10.45;66.99;95311.66;5025796;28;20220;-72
2021/09/30 04:42:01;;;;;;;2.63;0.70;;;10.10;99.90;;;10.46;66.91;95315.13;5008031;28;20212;-71
2021/09/30 04:44:27;;;;;;;1.37;0.60;;;10.30;99.90;;;10.37;66.88;95309.38;5030042;28;20304;-71
2021/09/30 04:46:53;;;;;;;1.67;0.70;;;8.80;99.90;;;10.50;67.05;95321.59;5026902;28;20317;-71
2021/09/30 04:49:19;;;;;;;0.63;0.47;;;9.10;99.90;;;10.47;67.10;95298.22;5021133;28;20770;-71
2021/09/30 04:51:47;;;;;;;2.50;0.77;;;8.80;99.90;;;10.45;67.11;95318.81;5011068;28;20215;-72
2021/09/30 04:54:13;;;;;;;3.03;0.70;;;9.20;99.90;;;10.50;67.41;95306.50;4991684;28;20695;-73
2021/09/30 04:56:42;;;;;;;1.90;0.67;;;8.70;99.90;;;10.50;67.17;95306.50;5009594;28;20317;-71
2021/09/30 04:59:08;;;;;;;2.90;0.80;;;9.60;99.90;;;10.50;67.18;95293.25;5007043;28;20219;-70
2021/09/30 05:01:36;;;;;;;3.03;0.70;;;9.00;99.90;;;10.48;67.47;95297.16;5026603;28;20214;-72
2021/09/30 05:04:02;;;;;;;1.60;0.60;;;;;;;10.49;67.17;95299.59;5002122;28;20825;-70
2021/09/30 05:06:28;;;;;;;2.27;0.80;;;10.00;99.90;;;10.46;67.40;95291.28;5008011;28;20699;-70
2021/09/30 05:08:59;;;;;;;2.60;1.20;;;;;;;10.41;67.42;95286.66;5021723;28;20217;-70
2021/09/30 05:11:31;;;;;;;3.60;1.40;;;8.80;99.90;;;10.36;67.33;95296.34;5025223;28;20218;-70
2021/09/30 05:13:58;;;;;;;3.33;1.13;;;;;;;10.33;67.64;95308.22;5002585;28;20222;-71
2021/09/30 05:16:25;;;;;;;3.37;1.10;;;10.20;99.90;;;10.42;67.49;95298.06;5029674;28;20219;-70
2021/09/30 05:18:55;;;;;;;2.57;1.37;;;9.70;99.90;;;10.54;67.59;95290.97;5029892;28;20216;-71
2021/09/30 05:21:23;;;;;;;1.67;1.00;;;9.60;99.90;;;10.41;67.60;95286.66;5034589;28;20220;-70
2021/09/30 05:23:49;;;;;;;3.37;0.83;;;8.70;99.90;;;10.31;67.96;95288.28;5015262;28;20863;-69
2021/09/30 05:26:18;;;;;;;2.20;0.80;;;9.60;99.90;;;10.37;67.85;95288.19;5030710;28;20702;-71
2021/09/30 05:28:44;;;;;;;2.50;0.90;;;9.30;99.90;;;10.36;67.75;95283.91;5031272;28;20673;-72
2021/09/30 05:31:10;;;;;;;3.23;1.03;;;;;;;10.36;67.81;95289.19;5016407;28;20223;-71
2021/09/30 05:33:38;;;;;;;2.73;0.97;;;;;;;10.38;67.74;95288.94;5028254;28;20218;-71
2021/09/30 05:36:07;;;;;;;4.40;1.10;;;9.10;99.90;;;10.34;67.94;95290.47;5030795;28;20224;-69
2021/09/30 05:38:33;;;;;;;2.50;0.80;;;8.30;99.90;;;10.38;67.80;95286.31;5013607;28;20248;-69
2021/09/30 05:40:59;;;;;;;3.03;0.80;;;10.30;99.90;;;10.35;67.91;95282.28;5033016;28;20311;-69
2021/09/30 05:43:32;;;;;;;2.67;0.53;;;10.20;99.90;;;10.47;67.92;95287.59;5003484;28;20222;-69
2021/09/30 05:46:01;;;;;;;3.97;0.80;;;9.90;99.90;;;10.52;67.99;95287.72;5016651;28;20218;-70
2021/09/30 05:48:28;;;;;;;2.80;0.90;;;10.00;99.90;;;10.66;68.03;95289.91;4999083;28;20214;-69
2021/09/30 05:50:54;;;;;;;4.53;0.60;;;10.10;99.90;;;10.72;67.90;95280.22;5011781;28;20582;-69
2021/09/30 05:53:21;;;;;;;2.67;0.60;;;10.10;99.90;;;10.69;68.01;95284.16;5026405;28;20234;-70
2021/09/30 05:55:48;;;;;;;4.00;0.70;;;8.60;99.90;;;10.66;68.02;95284.63;5015314;28;20247;-69
2021/09/30 05:58:15;;;;;;;2.43;0.70;;;9.70;99.90;;;10.62;67.97;95282.66;5029486;28;20685;-69
2021/09/30 06:00:51;;;;;;;1.90;1.00;;;9.60;99.90;;;10.63;68.07;95293.03;5027920;28;20214;-71
2021/09/30 06:14:29;;;;;;;2.47;0.90;;;10.40;99.90;;;10.98;68.38;95285.03;5009362;28;20692;-69
2021/09/30 06:16:55;;;;;;;2.77;0.77;;;10.20;99.90;;;11.23;68.66;95300.72;4992594;28;20322;-69
2021/09/30 06:19:22;;;;;;;2.77;0.70;;;10.40;99.90;;;11.50;68.46;95303.66;4992391;28;20338;-69
2021/09/30 06:21:54;;;;;;;2.30;0.70;;;10.70;99.90;;;11.65;68.89;95307.41;4988500;28;20216;-69
2021/09/30 06:24:24;;;;;;;2.90;1.00;;;10.70;99.90;;;11.88;68.43;95305.75;4995199;28;20710;-70
2021/09/30 06:26:51;;;;;;;2.20;1.10;;;;;;;11.97;68.95;95304.31;5004971;28;20828;-69
2021/09/30 06:29:19;;;;;;;1.70;0.90;;;;;;;12.14;68.90;95299.84;5006829;28;20229;-69
2021/09/30 06:31:50;;;;;;;3.03;0.73;;;11.90;99.90;;;12.19;68.40;95308.69;4970950;28;20238;-67
2021/09/30 06:34:16;;;;;;;2.73;0.87;;;11.50;99.90;;;12.54;68.83;95313.81;5006813;28;20319;-70
2021/09/30 06:36:42;;;;;;;1.20;0.80;;;;;;;13.41;68.91;95358.50;5002684;28;20240;-70
2021/09/30 06:39:08;;;;;;;2.93;1.30;;;13.20;99.90;;;13.68;68.50;95284.81;5004850;28;20227;-68
2021/09/30 06:41:37;;;;;;;2.10;0.47;;;;;;;13.55;68.88;95288.66;5008135;28;20234;-68
2021/09/30 06:44:06;;;;;;;4.97;0.90;;;12.50;99.90;;;13.54;68.90;95308.34;5008992;28;20256;-70
2021/09/30 06:46:31;;;;;;;3.17;1.10;;;13.20;99.90;;;14.04;68.79;95318.78;5003871;28;20231;-70
2021/09/30 06:48:58;;;;;;;3.30;1.80;;;;;;;14.25;68.77;95315.28;5023583;28;20476;-74
2021/09/30 06:51:24;;;;;;;1.27;0.50;;;;;;;14.15;68.44;95323.16;5026814;28;20551;-73
2021/09/30 06:53:50;;;;;;;3.43;0.57;;;13.80;99.90;;;14.11;68.46;95289.25;5029429;28;20305;-68
2021/09/30 06:56:19;;;;;;;3.90;0.83;;;;;;;14.43;68.58;95322.16;5024427;28;20707;-69
2021/09/30 06:58:46;;;;;;;1.37;0.70;;;13.20;99.90;;;14.46;68.37;95313.63;5029581;28;20598;-69
2021/09/30 07:01:15;;;;;;;1.60;0.70;;;13.30;99.90;;;14.34;68.58;95305.78;5029598;28;20687;-69
2021/09/30 07:03:41;;;;;;;1.10;0.60;;;14.10;99.90;;;14.34;68.55;95303.13;5028331;28;20677;-71
2021/09/30 07:06:07;;;;;;;0.80;0.53;;;15.80;99.90;;;16.61;68.51;95440.00;5024315;28;20231;-73
2021/09/30 07:08:33;;;;;;;1.70;0.60;;;16.00;99.90;;;16.79;68.40;95312.84;5030136;28;20294;-68
2021/09/30 07:11:01;;;;;;;3.20;0.60;;;17.20;99.90;;;17.44;68.33;95363.69;5025925;28;20215;-66
2021/09/30 07:13:27;;;;;;;1.30;0.57;;;;;;;20.50;67.71;95448.97;5012170;28;20265;-70
2021/09/30 07:15:54;;;;;;;1.63;0.60;;;;;;;22.14;67.47;95328.97;5026287;28;20270;-69
2021/09/30 07:18:22;;;;;;;2.10;0.63;;;23.60;99.90;;;23.93;67.47;95355.84;5027870;28;20306;-71
2021/09/30 07:20:57;;;;;;;1.33;0.40;;;25.60;99.90;;;26.28;66.62;95325.31;5026785;28;20224;-69
2021/09/30 07:23:24;;;;;;;1.70;0.67;;;27.30;99.00;;;27.29;66.47;95337.72;5025462;28;20265;-70
2021/09/30 07:25:52;;;;;;;1.90;0.60;;;27.60;93.30;;;27.55;65.73;95269.38;5025944;28;20207;-72
2021/09/30 07:28:21;;;;;;;0.90;0.43;;;27.90;91.20;;;26.67;65.90;95339.59;5023771;28;20274;-72
2021/09/30 07:30:51;;;;;;;2.40;0.50;;;28.30;90.30;;;27.30;65.21;95221.38;5027405;28;20246;-72
2021/09/30 07:33:24;;;;;;;3.37;0.50;;;27.50;92.30;;;25.93;64.82;95253.19;5021809;28;20216;-72
2021/09/30 07:35:51;;;;;;;3.20;0.50;;;27.00;91.00;;;25.10;64.64;95252.03;5025322;28;20228;-70
2021/09/30 07:38:18;;;;;;;1.10;0.60;;;26.70;91.90;;;24.50;64.45;95225.75;5004025;28;20211;-70
2021/09/30 07:40:44;;;;;;;1.80;0.70;;;26.00;92.70;;;24.57;64.00;95266.75;5024929;28;20297;-71
2021/09/30 07:43:10;;;;;;;2.03;0.60;;;25.90;93.50;;;24.92;63.14;95370.63;5025606;28;20223;-71
2021/09/30 07:45:37;;;;;;;1.60;0.73;;;25.70;86.00;;;26.29;63.07;95320.66;5024741;28;20223;-69
2021/09/30 07:48:03;;;;;;;1.40;0.60;;;27.30;91.80;;;25.99;62.64;95271.69;5022807;28;20611;-70
2021/09/30 07:50:29;;;;;;;2.07;0.70;;;26.90;82.70;;;26.51;62.30;95333.97;5027132;28;20210;-70
2021/09/30 07:52:57;;;;;;;2.47;0.70;;;28.80;90.30;;;28.22;61.90;95407.16;5024740;28;20555;-69
2021/09/30 07:55:24;;;;;;;3.03;0.50;;;29.20;85.20;;;28.79;61.21;95386.03;5023173;28;20241;-69
2021/09/30 07:57:49;;;;;;;2.47;0.57;;;29.50;75.50;;;29.19;60.90;95276.81;5010311;28;20220;-69
2021/09/30 08:00:16;;;;;;;2.37;0.60;;;31.50;79.20;;;29.75;60.81;95282.22;4994006;28;20235;-71
2021/09/30 08:02:42;;;;;;;2.17;0.43;;;32.60;73.60;;;31.55;59.53;95392.44;5024819;28;20196;-72
2021/09/30 08:05:12;;;;;;;2.70;0.60;;;32.70;62.40;;;29.75;59.56;95298.63;5009934;28;20208;-69
2021/09/30 08:07:38;;;;;;;1.67;0.60;;;31.80;63.70;;;31.84;59.03;95229.97;5017093;28;20216;-70
2021/09/30 08:10:06;;;;;;;1.53;0.60;;;34.90;65.60;;;33.23;57.70;95390.25;5029153;28;20220;-70
2021/09/30 08:12:33;;;;;;;1.77;0.57;;;;;;;31.30;57.82;95295.97;5009088;28;20334;-69
2021/09/30 08:15:01;;;;;;;1.50;0.40;;;33.50;76.80;;;31.49;57.31;95232.91;5005741;28;20220;-70
2021/09/30 08:17:27;;;;;;;2.40;0.60;;;35.20;75.10;;;32.29;56.87;95315.06;5024827;28;20209;-69
2021/09/30 08:19:55;;;;;;;0.90;0.50;;;35.20;71.80;;;32.71;56.37;95314.13;5011893;28;20223;-68
2021/09/30 08:22:23;;;;;;;1.03;0.50;;;35.70;70.90;;;32.95;55.59;95360.41;5018687;28;20215;-72
2021/09/30 08:24:51;;;;;;;2.17;0.57;;;36.70;62.50;;;33.40;55.17;95331.97;5040496;28;20219;-72
2021/09/30 08:27:17;;;;;;;2.13;0.50;;;35.80;54.40;;;32.73;55.30;95216.47;5023436;28;20224;-72
2021/09/30 08:29:45;;;;;;;4.47;0.65;;;35.70;61.50;;;32.90;54.51;95327.75;5005342;28;20703;-74
2021/09/30 08:32:11;;;;;;;4.53;0.60;;;35.20;54.20;;;34.57;54.04;95378.00;5024386;28;20224;-72
2021/09/30 08:34:39;;;;;;;1.60;0.77;;;36.40;55.00;;;33.40;53.24;95121.03;5028556;28;20224;-73
2021/09/30 08:37:05;;;;;;;0.82;0.45;;;36.20;50.70;;;31.28;53.18;95194.13;5024961;28;20306;-73
2021/09/30 08:39:31;;;;;;;2.23;0.70;;;34.40;59.30;;;31.45;52.71;95202.69;5026024;28;20307;-72
2021/09/30 08:42:03;;;;;;;2.67;0.60;;;34.30;60.60;;;31.75;51.94;95342.69;5019790;28;20219;-73
2021/09/30 08:44:33;;;;;;;1.60;0.40;;;35.10;61.40;;;33.03;51.35;95364.84;5024598;28;20297;-72
2021/09/30 08:47:07;;;;;;;1.90;0.80;;;37.00;60.60;;;33.39;51.44;95250.63;5019435;28;20220;-70
2021/09/30 08:49:34;;;;;;;2.20;0.77;;;35.70;61.10;;;32.60;51.16;95255.53;5022915;28;20626;-69
2021/09/30 08:52:00;;;;;;;3.30;0.80;;;35.60;59.60;;;32.87;50.64;95342.25;5004198;28;20212;-73
2021/09/30 08:54:26;;;;;;;2.50;0.60;;;33.90;59.60;;;31.28;50.16;95203.16;5025280;28;20231;-68
2021/09/30 08:56:52;;;;;;;2.43;0.70;;;34.20;53.50;;;32.09;49.72;95387.63;5008455;28;20216;-72
2021/09/30 08:59:25;;;;;;;1.33;0.70;;;35.10;59.60;;;31.63;49.26;95254.31;5027145;28;20212;-72
2021/09/30 09:02:14;;;;;;;1.20;0.60;;;33.20;61.20;;;30.28;48.98;95325.38;5003482;28;20232;-71
2021/09/30 09:04:59;;;;;;;0.73;0.50;;;33.10;61.40;;;31.08;48.85;95327.63;5027640;28;20232;-72
2021/09/30 09:07:33;;;;;;;1.80;0.50;;;33.60;53.90;;;32.27;48.28;95349.53;5009776;28;20208;-72
2021/09/30 09:10:05;;;;;;;2.67;0.70;;;34.60;52.00;;;33.27;47.82;95338.88;5027769;28;20714;-71
2021/09/30 09:12:32;;;;;;;0.97;0.47;;;35.40;51.30;;;33.48;47.15;95254.66;5010271;28;20281;-71
2021/09/30 09:15:03;;;;;;;1.25;0.40;;;36.60;54.70;;;33.40;47.53;95302.50;4989279;28;20220;-71
2021/09/30 09:17:31;;;;;;;1.73;0.80;;;36.70;54.10;;;33.34;46.65;95205.00;5026500;28;20212;-70
2021/09/30 09:20:00;;;;;;;1.10;0.50;;;36.00;55.70;;;33.11;46.68;95267.59;5008350;28;20201;-70
2021/09/30 09:22:36;;;;;;;1.67;0.60;;;34.70;55.70;;;31.67;46.05;95255.97;5008671;28;20243;-72
2021/09/30 09:25:13;;;;;;;0.40;0.37;;;35.90;47.40;;;32.84;45.42;95285.28;5000882;28;20758;-71
2021/09/30 09:27:55;;;;;;;1.90;0.60;;;36.30;55.10;;;33.64;45.50;95275.69;5008252;28;21793;-71
2021/09/30 09:30:51;;;;;;;1.87;0.60;;;37.10;53.80;;;34.57;44.60;95363.44;5025345;28;20213;-70
2021/09/30 09:33:24;;;;;;;2.67;0.50;;;36.00;46.60;;;33.20;44.75;95367.06;5024773;28;20922;-70
2021/09/30 09:35:54;;;;;;;1.93;0.60;;;35.00;63.70;;;32.11;44.29;95239.06;5023781;28;20270;-71
2021/09/30 09:38:52;;;;;;;1.70;0.60;;;34.70;64.00;;;32.65;44.07;95356.81;5023208;28;20262;-70
2021/09/30 09:41:35;;;;;;;1.30;0.53;;;36.00;61.90;;;33.95;43.61;95354.97;5004293;28;20732;-70
2021/09/30 09:44:05;;;;;;;1.63;0.50;;;35.80;55.70;;;33.34;43.56;95363.72;5027575;28;20233;-73
2021/09/30 09:46:36;;;;;;;2.47;0.67;;;34.40;54.80;;;32.65;42.71;95277.16;5022475;28;20857;-73
2021/09/30 09:49:19;;;;;;;1.50;0.67;;;35.20;48.30;;;30.63;42.89;95204.97;5022323;28;20219;-73
2021/09/30 09:51:52;;;;;;;1.53;0.50;;;34.20;56.70;;;32.30;41.92;95392.72;5011515;28;20291;-72
2021/09/30 09:54:27;;;;;;;1.60;0.50;;;35.60;54.10;;;32.83;42.09;95209.53;5023434;28;20738;-73
2021/09/30 09:56:53;;;;;;;1.30;0.60;;;34.90;52.60;;;32.38;41.93;95257.94;5007971;28;20234;-70
2021/09/30 09:59:40;;;;;;;1.77;0.60;;;35.00;47.80;;;34.35;41.19;95401.81;4991291;28;20216;-72
2021/09/30 10:02:06;;;;;;;1.43;0.67;;;36.50;47.10;;;34.68;41.22;95326.56;5010070;28;20215;-71
2021/09/30 10:04:35;;;;;;;1.37;0.60;;;35.80;48.60;;;32.88;40.62;95231.16;5005950;28;20227;-72
2021/09/30 10:07:03;;;;;;;1.60;0.45;;;35.70;44.50;;;32.85;40.89;95152.22;4995886;28;20220;-71
2021/09/30 10:09:33;;;;;;;3.10;0.87;;;34.70;53.40;;;32.69;40.27;95226.63;4997789;28;20362;-71
2021/09/30 10:11:59;;;;;;;0.90;0.50;;;35.10;52.40;;;33.81;40.24;95324.59;5013741;28;20231;-73
2021/09/30 10:14:29;;;;;;;1.87;0.60;;;35.60;46.70;;;31.98;39.93;95200.03;5026167;28;20216;-72
2021/09/30 10:16:55;;;;;;;1.40;0.57;;;34.50;51.60;;;32.50;39.95;95227.50;4991976;28;20260;-71
2021/09/30 10:19:25;;;;;;;1.13;0.50;;;34.40;46.10;;;32.08;39.58;95272.75;5024760;28;20915;-71
2021/09/30 10:21:53;;;;;;;2.00;0.67;;;34.80;51.20;;;32.32;39.63;95111.19;5001273;28;20318;-72
2021/09/30 10:24:23;;;;;;;1.60;0.40;;;34.60;50.40;;;33.06;39.53;95171.72;5028427;28;20298;-72
2021/09/30 10:26:59;;;;;;;0.70;0.40;;;34.60;47.60;;;32.39;38.89;95188.13;5016061;28;20216;-73
2021/09/30 10:29:46;;;;;;;1.90;0.50;;;35.30;48.10;;;33.33;38.33;95296.13;5011624;28;20230;-73
2021/09/30 10:32:20;;;;;;;1.23;0.50;;;35.40;55.90;;;33.40;37.95;95266.75;5028474;28;20220;-73
2021/09/30 10:34:55;;;;;;;1.50;0.50;;;34.20;56.00;;;32.26;38.04;95236.19;5028619;28;20230;-72
2021/09/30 10:37:35;;;;;;;1.30;0.60;;;33.90;57.40;;;32.23;38.02;95238.88;5011494;28;20219;-74
2021/09/30 10:40:19;;;;;;;1.17;0.40;;;34.50;55.50;;;32.77;37.45;95277.72;5029148;28;20212;-73
2021/09/30 10:42:58;;;;;;;1.87;0.53;;;34.10;52.10;;;34.24;37.44;95201.88;5022460;28;20201;-74
2021/09/30 10:45:39;;;;;;;0.93;0.43;;;36.20;47.20;;;33.43;36.95;95112.00;5012527;28;20295;-72
2021/09/30 10:48:07;;;;;;;1.50;0.53;;;36.30;50.00;;;33.76;37.38;95135.06;5012084;28;20220;-72
2021/09/30 10:50:51;;;;;;;1.53;0.70;;;36.30;44.50;;;33.73;37.14;95199.91;5027947;28;20287;-72
2021/09/30 10:53:20;;;;;;;2.50;0.50;;;34.20;52.40;;;32.70;36.33;95166.97;5027071;28;20269;-73
2021/09/30 10:55:45;;;;;;;1.00;0.40;;;34.00;52.50;;;32.09;36.24;95190.06;5027333;28;20200;-72
2021/09/30 10:58:24;;;;;;;0.40;0.40;;;34.20;55.10;;;33.38;36.30;95304.81;5022041;28;20222;-72
2021/09/30 11:00:56;;;;;;;0.77;0.40;;;34.70;48.90;;;34.32;36.13;95126.41;5025571;28;20204;-72
2021/09/30 11:03:23;;;;;;;1.10;0.40;;;36.00;53.70;;;33.80;35.54;95219.22;5027122;28;20228;-73
2021/09/30 11:06:07;;;;;;;1.73;0.50;;;35.80;47.30;;;32.90;35.87;95231.59;5027674;28;20212;-72
2021/09/30 11:08:35;;;;;;;2.20;0.60;;;35.50;50.60;;;33.48;35.39;95161.16;5026536;28;20219;-73
2021/09/30 11:11:07;;;;;;;0.60;0.40;;;34.40;52.30;;;32.94;34.99;95224.94;5021887;28;20730;-72
2021/09/30 11:14:04;;;;;;;0.97;0.40;;;36.40;52.50;;;35.05;34.90;95173.97;5024606;28;20627;-72
2021/09/30 11:16:41;;;;;;;0.70;0.30;;;36.40;42.80;;;35.14;34.93;95221.28;5023227;28;20301;-73
2021/09/30 11:19:47;;;;;;;1.03;0.57;;;36.10;56.90;;;34.89;34.77;95287.28;5028534;28;20254;-72
2021/09/30 11:22:16;;;;;;;0.57;0.40;;;36.60;56.80;;;34.48;34.34;95185.50;5007421;28;20234;-71
2021/09/30 11:24:56;;;;;;;1.50;0.40;;;36.30;43.30;;;33.66;33.99;95166.84;5000514;28;20619;-72
2021/09/30 11:27:31;;;;;;;1.30;0.50;;;34.50;53.30;;;32.70;33.70;95145.00;5025279;28;20215;-73
2021/09/30 11:30:21;;;;;;;1.00;0.50;;;33.10;53.40;;;33.63;33.60;95155.81;5027942;28;20215;-74
2021/09/30 11:32:48;;;;;;;2.00;0.60;;;35.50;52.20;;;33.80;33.50;95089.91;5030528;28;20224;-74
2021/09/30 11:35:14;;;;;;;0.77;0.40;;;35.70;45.10;;;33.76;33.15;95036.03;5029736;28;20208;-74
2021/09/30 11:37:47;;;;;;;0.67;0.40;;;35.60;46.20;;;34.53;33.12;95218.19;5029445;28;20717;-74
2021/09/30 11:40:18;;;;;;;0.80;0.40;;;35.50;51.90;;;32.70;33.28;94963.72;5020366;28;20204;-76
2021/09/30 11:42:52;;;;;;;1.60;0.40;;;33.30;55.50;;;31.35;33.15;95167.66;5029217;28;20212;-74
2021/09/30 11:45:27;;;;;;;0.60;0.40;;;33.10;56.10;;;32.09;33.05;95227.69;5022479;28;20256;-75
2021/09/30 11:48:08;;;;;;;1.97;0.40;;;33.70;56.30;;;32.54;33.32;95178.91;5029353;28;20729;-74
2021/09/30 11:50:35;;;;;;;0.93;0.50;;;34.10;49.10;;;33.06;32.74;95119.50;5021680;28;20231;-73
2021/09/30 11:53:11;;;;;;;0.93;0.40;;;35.90;54.80;;;34.94;32.61;95245.59;5029773;28;20327;-74
2021/09/30 11:55:41;;;;;;;1.27;0.50;;;37.00;52.50;;;35.24;32.58;94917.97;5027938;28;20285;-74
2021/09/30 11:58:09;;;;;;;1.30;0.33;;;34.60;54.50;;;33.23;32.78;95068.63;5013678;28;20307;-75
2021/09/30 12:00:35;;;;;;;0.73;0.30;;;35.80;54.40;;;33.96;32.28;95117.91;5010266;28;20847;-74
2021/09/30 12:03:06;;;;;;;1.40;0.50;;;35.80;54.20;;;32.99;32.47;94977.31;5012149;28;20222;-74
2021/09/30 12:05:41;;;;;;;1.80;0.40;;;35.00;46.60;;;34.36;32.04;95229.09;5024212;28;20679;-74
2021/09/30 12:08:12;;;;;;;3.13;0.60;;;36.50;53.60;;;35.37;31.44;95137.03;5025604;28;20227;-73
2021/09/30 12:10:39;;;;;;;1.70;0.50;;;37.30;52.10;;;35.43;31.93;95000.28;5038054;28;20215;-74
2021/09/30 12:13:21;;;;;;;2.33;0.50;;;36.00;55.30;;;34.45;31.19;95158.72;5028176;28;20212;-73
2021/09/30 12:15:49;;;;;;;1.67;0.60;;;36.10;47.70;;;34.65;30.98;95098.66;5010858;28;20212;-73
2021/09/30 12:18:23;;;;;;;1.97;0.67;;;37.60;56.20;;;36.21;31.05;95143.72;5017241;28;20353;-74
2021/09/30 12:20:58;;;;;;;2.23;0.70;;;37.60;47.60;;;36.82;31.12;95103.66;5026602;28;20281;-74
2021/09/30 12:23:27;;;;;;;2.00;0.57;;;39.90;50.70;;;38.23;30.62;95073.31;5026736;28;20212;-74
2021/09/30 12:25:53;;;;;;;1.03;0.50;;;39.80;44.20;;;36.89;30.96;94970.91;5028845;28;20239;-74
2021/09/30 12:28:23;;;;;;;0.85;0.57;;;37.70;62.40;;;35.75;30.57;95129.97;5027920;28;20216;-74
2021/09/30 12:30:52;;;;;;;2.27;0.63;;;38.50;59.30;;;37.10;30.22;95104.72;5023615;28;20584;-74
2021/09/30 12:33:18;;;;;;;2.55;0.63;;;38.80;59.90;;;37.09;30.08;95145.41;5029312;28;20219;-73
2021/09/30 12:35:47;;;;;;;4.00;0.63;;;;;;;36.15;30.33;95123.22;5042414;28;20209;-73
2021/09/30 12:38:20;;;;;;;1.33;0.70;;;36.80;54.10;;;35.73;30.07;95101.16;5027920;28;20280;-73
2021/09/30 12:40:55;;;;;;;1.50;0.60;;;38.00;54.20;;;37.02;29.62;95092.91;5027761;28;20208;-74
2021/09/30 12:43:34;;;;;;;1.07;0.60;;;37.60;53.10;;;35.77;29.74;95013.63;5009143;28;20302;-75
2021/09/30 12:46:10;;;;;;;1.70;0.50;;;37.20;54.70;;;35.17;30.18;94999.91;5009014;28;20223;-74
2021/09/30 12:48:38;;;;;;;1.87;0.50;;;36.90;55.80;;;35.82;29.58;95032.56;5001988;28;20212;-74
2021/09/30 12:51:13;;;;;;;2.80;0.80;;;36.60;54.30;;;35.17;29.42;95108.22;5010060;28;20656;-74
2021/09/30 12:53:50;;;;;;;1.90;0.70;;;37.00;55.10;;;35.83;29.14;95119.69;5021788;28;20725;-74
2021/09/30 12:56:29;;;;;;;1.70;0.83;;;38.20;53.30;;;36.88;29.47;94983.16;5020035;28;20706;-74
2021/09/30 12:58:55;;;;;;;2.30;0.73;;;37.90;47.10;;;36.14;29.30;94972.50;5009342;28;20227;-74
2021/09/30 13:01:33;;;;;;;1.37;0.70;;;38.10;52.90;;;36.62;29.15;95055.59;5013090;28;20307;-74
2021/09/30 13:04:21;;;;;;;2.53;0.70;;;39.30;53.40;;;37.51;28.92;95077.94;5024046;28;20208;-73
2021/09/30 13:07:06;;;;;;;2.20;0.90;;;37.00;53.70;;;35.82;29.02;94980.13;4997725;28;20209;-73
2021/09/30 13:09:36;;;;;;;1.53;0.70;;;36.70;54.70;;;35.48;28.47;94986.09;5027392;28;20207;-75
2021/09/30 13:12:21;;;;;;;2.03;0.50;;;36.60;55.60;;;35.61;28.89;95047.19;5027658;28;20695;-75
2021/09/30 13:14:53;;;;;;;2.10;0.60;;;37.80;54.10;;;37.27;28.45;95063.06;5029064;28;20251;-74
2021/09/30 13:17:26;;;;;;;2.97;1.10;;;38.00;47.40;;;37.72;28.80;95044.53;5025475;28;20299;-73
2021/09/30 13:20:15;;;;;;;1.70;0.50;;;38.50;46.40;;;37.44;28.38;95012.34;5027977;28;20258;-72
2021/09/30 13:22:46;;;;;;;2.13;0.63;;;39.10;51.70;;;37.79;28.02;95044.47;5010521;28;20219;-72
2021/09/30 13:25:19;;;;;;;1.90;0.60;;;39.20;44.70;;;37.63;28.19;94999.94;5030343;28;20215;-72